createdAt,value
2022-09-30T00:00:11.817Z,20.95
2022-09-30T00:05:17.184Z,17.13
2022-09-30T00:10:20.652Z,16.67
2022-09-30T00:15:24.146Z,19.27
2022-09-30T00:20:28.948Z,21.23
2022-09-30T00:25:32.361Z,17.23
2022-09-30T00:30:35.937Z,15.75
2022-09-30T00:35:40.729Z,22.35
2022-09-30T00:40:46.555Z,18.60
2022-09-30T00:45:55.030Z,17.08
2022-09-30T00:51:00.005Z,18.10
2022-09-30T00:56:07.440Z,18.20
2022-09-30T01:01:11.261Z,14.77
2022-09-30T01:06:16.047Z,15.70
2022-09-30T01:11:19.995Z,17.90
2022-09-30T01:16:44.902Z,16.70
2022-09-30T01:22:20.852Z,16.05
2022-09-30T01:27:41.293Z,17.48
2022-09-30T01:32:59.283Z,15.13
2022-09-30T01:38:11.868Z,13.80
2022-09-30T01:43:25.953Z,17.08
2022-09-30T01:48:40.655Z,16.73
2022-09-30T01:53:48.481Z,15.35
2022-09-30T01:58:57.372Z,17.10
2022-09-30T02:04:07.814Z,14.40
2022-09-30T02:09:16.004Z,10.17
2022-09-30T02:14:24.757Z,12.43
2022-09-30T02:19:35.080Z,12.18
2022-09-30T02:24:39.185Z,11.20
2022-09-30T02:29:47.396Z,13.82
2022-09-30T02:34:57.178Z,16.27
2022-09-30T02:40:06.168Z,15.52
2022-09-30T02:45:12.659Z,16.35
2022-09-30T02:50:23.729Z,13.23
2022-09-30T02:55:32.290Z,12.60
2022-09-30T03:00:35.901Z,14.82
2022-09-30T03:05:40.827Z,14.55
2022-09-30T03:10:45.023Z,14.10
2022-09-30T03:15:59.459Z,15.88
2022-09-30T03:21:15.525Z,14.48
2022-09-30T03:26:28.185Z,16.25
2022-09-30T03:31:42.913Z,14.50
2022-09-30T03:37:04.007Z,34.53
2022-09-30T03:42:17.258Z,64.05
2022-09-30T03:47:26.326Z,55.72
2022-09-30T03:52:34.217Z,36.45
2022-09-30T03:57:37.932Z,49.10
2022-09-30T04:02:41.677Z,23.45
2022-09-30T04:07:47.137Z,17.10
2022-09-30T04:12:50.581Z,18.63
2022-09-30T04:17:54.085Z,21.35
2022-09-30T04:22:59.784Z,36.47
2022-09-30T04:28:03.454Z,32.95
2022-09-30T04:33:06.942Z,48.00
2022-09-30T04:38:11.735Z,46.55
2022-09-30T04:43:15.140Z,17.48
2022-09-30T04:48:18.568Z,49.50
2022-09-30T04:53:23.386Z,56.05
2022-09-30T04:58:26.909Z,37.97
2022-09-30T05:03:30.786Z,42.75
2022-09-30T05:08:36.136Z,15.75
2022-09-30T05:13:41.098Z,27.13
2022-09-30T05:18:46.226Z,13.27
2022-09-30T05:23:51.210Z,15.43
2022-09-30T05:28:54.696Z,12.82
2022-09-30T05:33:58.485Z,10.55
2022-09-30T05:39:03.346Z,9.68
2022-09-30T05:44:09.223Z,12.35
2022-09-30T05:49:12.630Z,8.05
2022-09-30T05:54:17.418Z,9.73
2022-09-30T05:59:20.989Z,13.73
2022-09-30T06:04:24.456Z,12.38
2022-09-30T06:09:29.249Z,9.68
2022-09-30T06:14:32.932Z,10.75
2022-09-30T06:19:36.414Z,12.07
2022-09-30T06:24:41.670Z,13.00
2022-09-30T06:29:47.231Z,12.25
2022-09-30T06:34:50.873Z,12.13
2022-09-30T06:39:56.000Z,11.20
2022-09-30T06:44:59.509Z,13.50
2022-09-30T06:50:03.192Z,15.20
2022-09-30T06:55:09.004Z,16.27
2022-09-30T07:00:14.254Z,18.95
2022-09-30T07:05:19.171Z,23.73
2022-09-30T07:10:24.197Z,21.60
2022-09-30T07:15:27.853Z,22.58
2022-09-30T07:20:31.498Z,28.00
2022-09-30T07:25:36.841Z,29.42
2022-09-30T07:30:43.637Z,29.90
2022-09-30T07:35:54.633Z,132.07
2022-09-30T07:41:02.247Z,38.22
2022-09-30T07:46:07.572Z,38.38
2022-09-30T07:51:12.491Z,37.75
2022-09-30T07:56:18.839Z,32.42
2022-09-30T08:01:23.284Z,31.52
2022-09-30T08:06:29.110Z,30.48
2022-09-30T08:11:36.902Z,37.10
2022-09-30T08:16:40.592Z,32.67
2022-09-30T08:21:44.822Z,43.42
2022-09-30T08:26:49.818Z,56.47
2022-09-30T08:31:53.528Z,36.90
2022-09-30T08:36:59.624Z,38.20
2022-09-30T08:42:35.968Z,47.13
2022-09-30T08:47:48.172Z,47.20
2022-09-30T08:52:55.054Z,43.92
2022-09-30T08:58:05.486Z,40.15
2022-09-30T09:03:14.271Z,36.20
2022-09-30T09:08:28.155Z,34.40
2022-09-30T09:13:50.119Z,37.35
2022-09-30T09:19:00.648Z,52.38
2022-09-30T09:24:07.132Z,41.20
2022-09-30T09:29:25.557Z,39.15
2022-09-30T09:34:35.830Z,39.95
2022-09-30T09:40:09.503Z,37.30
2022-09-30T09:45:24.632Z,37.53
2022-09-30T09:50:39.738Z,35.13
2022-09-30T09:55:43.893Z,35.88
2022-09-30T10:01:11.345Z,33.47
2022-09-30T10:06:15.060Z,32.42
2022-09-30T10:11:22.609Z,31.98
2022-09-30T10:16:35.395Z,31.50
2022-09-30T10:21:38.852Z,33.10
2022-09-30T10:26:48.640Z,28.88
2022-09-30T10:31:59.004Z,27.80
2022-09-30T10:37:10.788Z,24.05
2022-09-30T10:42:26.513Z,25.80
2022-09-30T10:47:36.598Z,18.45
2022-09-30T10:52:50.261Z,24.43
2022-09-30T10:57:55.143Z,16.42
2022-09-30T11:03:05.693Z,17.98
2022-09-30T11:08:18.065Z,13.55
2022-09-30T11:13:29.723Z,19.15
2022-09-30T11:18:43.246Z,15.10
2022-09-30T11:23:54.085Z,14.57
2022-09-30T11:29:13.429Z,14.10
2022-09-30T11:34:33.535Z,15.52
2022-09-30T11:40:00.289Z,19.63
2022-09-30T11:45:17.714Z,18.02
2022-09-30T11:50:33.691Z,17.27
2022-09-30T11:55:49.128Z,19.48
2022-09-30T12:00:56.759Z,18.50
2022-09-30T12:06:08.573Z,18.55
2022-09-30T12:11:16.179Z,14.32
2022-09-30T12:16:24.290Z,12.57
2022-09-30T12:21:34.110Z,12.23
2022-09-30T12:26:38.184Z,13.55
2022-09-30T12:32:06.389Z,10.93
2022-09-30T12:37:41.813Z,7.88
2022-09-30T12:43:05.574Z,7.65
2022-09-30T12:48:17.148Z,6.85
2022-09-30T12:53:27.156Z,8.93
2022-09-30T12:58:35.377Z,8.48
2022-09-30T13:03:53.308Z,5.97
2022-09-30T13:09:22.404Z,6.55
2022-09-30T13:14:34.043Z,8.35
2022-09-30T13:19:40.505Z,4.88
2022-09-30T13:25:12.403Z,5.65
2022-09-30T13:30:42.725Z,5.40
2022-09-30T13:35:52.699Z,5.80
2022-09-30T13:41:03.473Z,7.65
2022-09-30T13:51:15.833Z,3.83
2022-09-30T13:56:25.197Z,6.35
2022-09-30T14:01:44.620Z,7.50
2022-09-30T14:07:01.217Z,6.63
2022-09-30T14:12:20.890Z,5.22
2022-09-30T14:17:41.417Z,6.05
2022-09-30T14:22:45.602Z,4.32
2022-09-30T14:28:14.854Z,4.50
2022-09-30T14:33:25.081Z,3.72
2022-09-30T14:38:31.126Z,3.35
2022-09-30T14:43:42.709Z,5.30
2022-09-30T14:48:49.881Z,4.13
2022-09-30T14:53:55.834Z,6.32
2022-09-30T14:59:01.832Z,9.52
2022-09-30T15:04:09.165Z,7.63
2022-09-30T15:09:18.976Z,10.68
2022-09-30T15:14:25.610Z,5.53
2022-09-30T15:19:30.980Z,4.88
2022-09-30T15:24:36.946Z,6.88
2022-09-30T15:29:55.049Z,5.82
2022-09-30T15:34:58.947Z,4.93
2022-09-30T15:40:17.859Z,4.70
2022-09-30T15:45:34.965Z,4.20
2022-09-30T15:50:42.093Z,5.22
2022-09-30T15:55:48.400Z,5.15
2022-09-30T16:00:55.121Z,4.15
2022-09-30T16:06:08.312Z,14.40
2022-09-30T16:11:21.301Z,5.97
2022-09-30T16:16:29.213Z,8.05
2022-09-30T16:21:50.852Z,5.82
2022-09-30T16:26:55.823Z,5.30
2022-09-30T16:32:00.978Z,5.47
2022-09-30T16:37:11.454Z,5.97
2022-09-30T16:42:16.257Z,5.63
2022-09-30T16:47:21.243Z,6.65
2022-09-30T16:52:24.878Z,6.53
2022-09-30T16:57:28.455Z,6.90
2022-09-30T17:02:33.576Z,13.80
2022-09-30T17:07:37.045Z,4.68
2022-09-30T17:12:40.591Z,3.38
2022-09-30T17:17:45.680Z,5.82
2022-09-30T17:22:49.714Z,5.03
2022-09-30T17:27:53.270Z,9.50
2022-09-30T17:32:59.197Z,5.18
2022-09-30T17:38:02.780Z,7.63
2022-09-30T17:43:11.173Z,6.68
2022-09-30T17:48:18.480Z,6.15
2022-09-30T17:53:22.609Z,7.30
2022-09-30T17:58:26.181Z,22.08
2022-09-30T18:03:32.377Z,8.48
2022-09-30T18:08:35.988Z,8.15
2022-09-30T18:13:39.574Z,9.75
2022-09-30T18:18:44.473Z,7.80
2022-09-30T18:23:48.075Z,6.90
2022-09-30T18:28:52.649Z,7.03
2022-09-30T18:33:58.650Z,5.57
2022-09-30T18:39:02.970Z,6.35
2022-09-30T18:44:06.706Z,10.55
2022-09-30T18:49:12.160Z,7.03
2022-09-30T18:54:16.343Z,6.53
2022-09-30T18:59:23.245Z,9.52
2022-09-30T19:04:29.194Z,6.82
2022-09-30T19:09:33.104Z,7.55
2022-09-30T19:14:38.052Z,12.65
2022-09-30T19:19:45.438Z,9.15
2022-09-30T19:24:48.933Z,9.63
2022-09-30T19:29:57.242Z,8.35
2022-09-30T19:35:06.635Z,12.00
2022-09-30T19:40:20.992Z,9.68
2022-09-30T19:45:27.228Z,6.10
2022-09-30T19:50:32.299Z,7.80
2022-09-30T19:55:45.972Z,6.85
2022-09-30T20:00:56.292Z,6.32
2022-09-30T20:06:03.663Z,6.93
2022-09-30T20:11:09.507Z,5.93
2022-09-30T20:16:15.096Z,7.53
2022-09-30T20:21:19.956Z,26.25
2022-09-30T20:26:23.759Z,6.95
2022-09-30T20:31:28.631Z,7.40
2022-09-30T20:36:35.056Z,5.75
2022-09-30T20:41:39.878Z,5.50
2022-09-30T20:46:44.038Z,5.72
2022-09-30T20:51:49.123Z,5.97
2022-09-30T20:57:06.913Z,6.88
2022-09-30T21:02:14.065Z,8.18
2022-09-30T21:07:19.046Z,8.75
2022-09-30T21:12:22.570Z,6.28
2022-09-30T21:17:26.013Z,16.23
2022-09-30T21:22:30.807Z,11.30
2022-09-30T21:27:35.058Z,7.13
2022-09-30T21:32:38.740Z,7.30
2022-09-30T21:37:44.155Z,9.00
2022-09-30T21:42:47.704Z,7.25
2022-09-30T21:47:51.165Z,5.70
2022-09-30T21:52:58.688Z,5.45
2022-09-30T21:58:02.283Z,7.40
2022-09-30T22:03:05.712Z,9.23
2022-09-30T22:08:10.551Z,6.47
2022-09-30T22:13:15.500Z,7.38
2022-09-30T22:18:20.383Z,7.13
2022-09-30T22:23:25.193Z,7.93
2022-09-30T22:28:28.605Z,9.75
2022-09-30T22:33:49.719Z,8.93
2022-09-30T22:38:54.532Z,35.13
2022-09-30T22:43:57.948Z,11.23
2022-09-30T22:49:01.431Z,9.57
2022-09-30T22:54:06.369Z,11.10
2022-09-30T22:59:09.827Z,11.00
2022-09-30T23:04:17.178Z,10.73
2022-09-30T23:09:22.310Z,9.23
2022-09-30T23:14:26.276Z,9.73
2022-09-30T23:19:29.729Z,11.90
2022-09-30T23:24:34.577Z,10.70
2022-09-30T23:29:38.048Z,10.70
2022-09-30T23:34:41.462Z,11.48
2022-09-30T23:39:46.258Z,14.25
2022-09-30T23:44:49.658Z,9.50
2022-09-30T23:49:55.407Z,10.48
2022-09-30T23:55:00.163Z,9.63
